sensor_id;sensor_type;location;lat;lon;timestamp;pressure;altitude;pressure_sealevel;temperature;humidity
52319;BME280;38258;51.148;14.068;2023-02-19T00:01:40;98177.16;;;6.72;100.00
52319;BME280;38258;51.148;14.068;2023-02-19T00:04:11;98179.94;;;6.62;100.00
52319;BME280;38258;51.148;14.068;2023-02-19T00:06:39;98172.06;;;6.67;100.00
52319;BME280;38258;51.148;14.068;2023-02-19T00:09:05;98168.66;;;6.63;100.00
52319;BME280;38258;51.148;14.068;2023-02-19T00:11:34;98176.41;;;6.67;100.00
52319;BME280;38258;51.148;14.068;2023-02-19T00:14:01;98169.47;;;6.67;100.00
52319;BME280;38258;51.148;14.068;2023-02-19T00:16:30;98171.94;;;6.75;100.00
52319;BME280;38258;51.148;14.068;2023-02-19T00:18:59;98158.06;;;6.74;100.00
52319;BME280;38258;51.148;14.068;2023-02-19T00:21:26;98155.53;;;6.71;100.00
52319;BME280;38258;51.148;14.068;2023-02-19T00:23:55;98153.81;;;6.70;100.00
52319;BME280;38258;51.148;14.068;2023-02-19T00:26:22;98153.81;;;6.70;100.00
52319;BME280;38258;51.148;14.068;2023-02-19T00:28:51;98145.25;;;6.63;100.00
52319;BME280;38258;51.148;14.068;2023-02-19T00:31:20;98159.91;;;6.69;100.00
52319;BME280;38258;51.148;14.068;2023-02-19T00:33:50;98162.50;;;6.68;100.00
52319;BME280;38258;51.148;14.068;2023-02-19T00:36:17;98160.78;;;6.68;100.00
52319;BME280;38258;51.148;14.068;2023-02-19T00:38:44;98157.25;;;6.72;100.00
52319;BME280;38258;51.148;14.068;2023-02-19T00:41:12;98145.13;;;6.71;100.00
52319;BME280;38258;51.148;14.068;2023-02-19T00:43:47;98149.44;;;6.72;100.00
52319;BME280;38258;51.148;14.068;2023-02-19T00:46:16;98149.44;;;6.72;100.00
52319;BME280;38258;51.148;14.068;2023-02-19T00:48:43;98142.53;;;6.71;100.00
52319;BME280;38258;51.148;14.068;2023-02-19T00:51:10;98121.81;;;6.65;100.00
52319;BME280;38258;51.148;14.068;2023-02-19T00:53:37;98133.81;;;6.74;100.00
52319;BME280;38258;51.148;14.068;2023-02-19T00:56:05;98131.09;;;6.82;100.00
52319;BME280;38258;51.148;14.068;2023-02-19T00:58:32;98121.63;;;6.77;100.00
52319;BME280;38258;51.148;14.068;2023-02-19T01:00:59;98131.13;;;6.78;100.00
52319;BME280;38258;51.148;14.068;2023-02-19T01:03:27;98130.22;;;6.83;100.00
52319;BME280;38258;51.148;14.068;2023-02-19T01:05:54;98131.03;;;6.85;100.00
52319;BME280;38258;51.148;14.068;2023-02-19T01:08:21;98123.31;;;6.82;100.00
52319;BME280;38258;51.148;14.068;2023-02-19T01:10:49;98123.25;;;6.83;100.00
52319;BME280;38258;51.148;14.068;2023-02-19T01:13:17;98123.31;;;6.80;100.00
52319;BME280;38258;51.148;14.068;2023-02-19T01:15:44;98107.81;;;6.75;100.00
52319;BME280;38258;51.148;14.068;2023-02-19T01:18:12;98107.72;;;6.80;100.00
52319;BME280;38258;51.148;14.068;2023-02-19T01:20:43;98111.16;;;6.81;100.00
52319;BME280;38258;51.148;14.068;2023-02-19T01:23:11;98087.13;;;6.68;100.00
52319;BME280;38258;51.148;14.068;2023-02-19T01:25:39;98099.03;;;6.83;100.00
52319;BME280;38258;51.148;14.068;2023-02-19T01:28:07;98106.97;;;6.75;100.00
52319;BME280;38258;51.148;14.068;2023-02-19T01:30:34;98100.00;;;6.75;100.00
52319;BME280;38258;51.148;14.068;2023-02-19T01:33:01;98100.88;;;6.74;100.00
52319;BME280;38258;51.148;14.068;2023-02-19T01:35:28;98094.94;;;6.69;100.00
52319;BME280;38258;51.148;14.068;2023-02-19T01:37:56;98083.56;;;6.75;100.00
52319;BME280;38258;51.148;14.068;2023-02-19T01:40:22;98087.13;;;6.68;100.00
52319;BME280;38258;51.148;14.068;2023-02-19T01:42:49;98073.19;;;6.73;100.00
52319;BME280;38258;51.148;14.068;2023-02-19T01:45:26;98070.75;;;6.64;100.00
52319;BME280;38258;51.148;14.068;2023-02-19T01:47:59;98070.72;;;6.65;100.00
52319;BME280;38258;51.148;14.068;2023-02-19T01:50:29;98065.59;;;6.62;100.00
52319;BME280;38258;51.148;14.068;2023-02-19T01:53:01;98057.06;;;6.54;100.00
52319;BME280;38258;51.148;14.068;2023-02-19T01:55:30;98069.03;;;6.63;100.00
52319;BME280;38258;51.148;14.068;2023-02-19T01:57:59;98062.25;;;6.53;100.00
52319;BME280;38258;51.148;14.068;2023-02-19T02:00:27;98061.28;;;6.61;100.00
52319;BME280;38258;51.148;14.068;2023-02-19T02:02:55;98057.88;;;6.56;100.00
52319;BME280;38258;51.148;14.068;2023-02-19T02:05:42;98058.84;;;6.50;100.00
52319;BME280;38258;51.148;14.068;2023-02-19T02:08:13;98049.53;;;6.39;100.00
52319;BME280;38258;51.148;14.068;2023-02-19T02:10:58;98037.63;;;6.25;100.00
52319;BME280;38258;51.148;14.068;2023-02-19T02:13:25;98060.84;;;6.34;100.00
52319;BME280;38258;51.148;14.068;2023-02-19T02:16:01;98047.88;;;6.34;100.00
52319;BME280;38258;51.148;14.068;2023-02-19T02:18:39;98046.22;;;6.29;100.00
52319;BME280;38258;51.148;14.068;2023-02-19T02:21:29;98031.84;;;6.07;100.00
52319;BME280;38258;51.148;14.068;2023-02-19T02:24:22;98035.25;;;6.11;100.00
52319;BME280;38258;51.148;14.068;2023-02-19T02:27:04;98034.38;;;6.12;100.00
52319;BME280;38258;51.148;14.068;2023-02-19T02:32:32;98030.84;;;6.16;100.00
52319;BME280;38258;51.148;14.068;2023-02-19T02:35:06;98022.44;;;5.99;100.00
52319;BME280;38258;51.148;14.068;2023-02-19T02:37:37;98015.41;;;6.07;100.00
52319;BME280;38258;51.148;14.068;2023-02-19T02:40:06;98012.84;;;6.05;100.00
52319;BME280;38258;51.148;14.068;2023-02-19T02:42:33;97956.22;;;5.71;100.00
52319;BME280;38258;51.148;14.068;2023-02-19T02:45:23;98009.44;;;6.03;100.00
52319;BME280;38258;51.148;14.068;2023-02-19T02:48:14;98000.75;;;6.04;100.00
52319;BME280;38258;51.148;14.068;2023-02-19T02:50:42;98002.41;;;6.08;100.00
52319;BME280;38258;51.148;14.068;2023-02-19T02:53:14;98000.69;;;6.06;100.00
52319;BME280;38258;51.148;14.068;2023-02-19T02:56:01;97990.47;;;5.95;100.00
52319;BME280;38258;51.148;14.068;2023-02-19T02:58:32;97996.41;;;6.05;100.00
52319;BME280;38258;51.148;14.068;2023-02-19T03:01:05;97984.31;;;6.01;100.00
52319;BME280;38258;51.148;14.068;2023-02-19T03:03:53;97988.66;;;6.03;100.00
52319;BME280;38258;51.148;14.068;2023-02-19T03:06:24;97976.53;;;6.02;100.00
52319;BME280;38258;51.148;14.068;2023-02-19T03:08:53;97972.19;;;6.03;100.00
52319;BME280;38258;51.148;14.068;2023-02-19T03:11:21;97965.28;;;6.03;100.00
52319;BME280;38258;51.148;14.068;2023-02-19T03:14:08;97934.44;;;5.83;100.00
52319;BME280;38258;51.148;14.068;2023-02-19T03:16:59;97966.13;;;6.02;100.00
52319;BME280;38258;51.148;14.068;2023-02-19T03:19:48;97956.78;;;5.92;100.00
52319;BME280;38258;51.148;14.068;2023-02-19T03:22:18;97970.53;;;5.97;100.00
52319;BME280;38258;51.148;14.068;2023-02-19T03:24:50;97973.94;;;6.01;100.00
52319;BME280;38258;51.148;14.068;2023-02-19T03:27:37;97968.84;;;5.94;100.00
52319;BME280;38258;51.148;14.068;2023-02-19T03:30:10;97956.78;;;5.92;100.00
52319;BME280;38258;51.148;14.068;2023-02-19T03:32:44;97968.03;;;5.91;100.00
52319;BME280;38258;51.148;14.068;2023-02-19T03:35:16;97959.44;;;5.87;100.00
52319;BME280;38258;51.148;14.068;2023-02-19T03:37:46;97969.84;;;5.86;100.00
52319;BME280;38258;51.148;14.068;2023-02-19T03:40:16;97963.81;;;5.84;100.00
52319;BME280;38258;51.148;14.068;2023-02-19T03:42:48;97949.28;;;5.73;100.00
52319;BME280;38258;51.148;14.068;2023-02-19T03:45:26;97953.63;;;5.71;100.00
52319;BME280;38258;51.148;14.068;2023-02-19T03:48:10;97946.03;;;5.60;100.00
52319;BME280;38258;51.148;14.068;2023-02-19T03:50:46;97946.72;;;5.72;100.00
52319;BME280;38258;51.148;14.068;2023-02-19T03:53:23;97945.91;;;5.68;100.00
52319;BME280;38258;51.148;14.068;2023-02-19T03:55:59;97946.84;;;5.62;100.00
52319;BME280;38258;51.148;14.068;2023-02-19T03:58:33;97940.78;;;5.63;100.00
52319;BME280;38258;51.148;14.068;2023-02-19T04:01:05;97939.91;;;5.64;100.00
52319;BME280;38258;51.148;14.068;2023-02-19T04:03:39;97932.28;;;5.55;100.00
52319;BME280;38258;51.148;14.068;2023-02-19T04:06:10;97930.56;;;5.54;100.00
52319;BME280;38258;51.148;14.068;2023-02-19T04:08:40;97929.69;;;5.52;100.00
52319;BME280;38258;51.148;14.068;2023-02-19T04:11:09;97921.84;;;5.57;100.00
52319;BME280;38258;51.148;14.068;2023-02-19T04:13:42;97920.97;;;5.59;100.00
52319;BME280;38258;51.148;14.068;2023-02-19T04:16:13;97906.56;;;5.40;100.00
52319;BME280;38258;51.148;14.068;2023-02-19T04:18:44;97909.13;;;5.41;100.00
52319;BME280;38258;51.148;14.068;2023-02-19T04:21:13;97896.22;;;5.38;100.00
52319;BME280;38258;51.148;14.068;2023-02-19T04:23:42;97925.53;;;5.43;100.00
52319;BME280;38258;51.148;14.068;2023-02-19T04:26:10;97920.25;;;5.48;100.00
52319;BME280;38258;51.148;14.068;2023-02-19T04:28:38;97916.03;;;5.42;100.00
52319;BME280;38258;51.148;14.068;2023-02-19T04:31:05;97915.06;;;5.48;100.00
52319;BME280;38258;51.148;14.068;2023-02-19T04:33:31;97909.81;;;5.54;100.00
52319;BME280;38258;51.148;14.068;2023-02-19T04:35:59;97890.22;;;5.34;100.00
52319;BME280;38258;51.148;14.068;2023-02-19T04:38:26;97897.88;;;5.42;100.00
52319;BME280;38258;51.148;14.068;2023-02-19T04:40:52;97892.72;;;5.41;100.00
52319;BME280;38258;51.148;14.068;2023-02-19T04:43:19;97894.38;;;5.46;100.00
52319;BME280;38258;51.148;14.068;2023-02-19T04:45:45;97898.50;;;5.57;100.00
52319;BME280;38258;51.148;14.068;2023-02-19T04:48:12;97891.66;;;5.52;100.00
52319;BME280;38258;51.148;14.068;2023-02-19T04:50:39;97882.22;;;5.48;100.00
52319;BME280;38258;51.148;14.068;2023-02-19T04:53:07;97886.53;;;5.48;100.00
52319;BME280;38258;51.148;14.068;2023-02-19T04:55:35;97886.47;;;5.54;100.00
52319;BME280;38258;51.148;14.068;2023-02-19T04:58:02;97892.47;;;5.56;100.00
52319;BME280;38258;51.148;14.068;2023-02-19T05:00:29;97895.88;;;5.60;100.00
52319;BME280;38258;51.148;14.068;2023-02-19T05:02:56;97894.19;;;5.57;100.00
52319;BME280;38258;51.148;14.068;2023-02-19T05:05:22;97881.19;;;5.59;100.00
52319;BME280;38258;51.148;14.068;2023-02-19T05:07:49;97895.06;;;5.56;100.00
52319;BME280;38258;51.148;14.068;2023-02-19T05:10:17;97895.84;;;5.61;100.00
52319;BME280;38258;51.148;14.068;2023-02-19T05:12:43;97897.63;;;5.59;100.00
52319;BME280;38258;51.148;14.068;2023-02-19T05:15:10;97889.00;;;5.57;100.00
52319;BME280;38258;51.148;14.068;2023-02-19T05:17:36;97906.13;;;5.68;100.00
52319;BME280;38258;51.148;14.068;2023-02-19T05:20:03;97856.44;;;5.39;100.00
52319;BME280;38258;51.148;14.068;2023-02-19T05:22:30;97902.69;;;5.67;100.00
52319;BME280;38258;51.148;14.068;2023-02-19T05:24:57;97903.63;;;5.61;100.00
52319;BME280;38258;51.148;14.068;2023-02-19T05:27:25;97900.09;;;5.65;100.00
52319;BME280;38258;51.148;14.068;2023-02-19T05:29:51;97907.88;;;5.65;100.00
52319;BME280;38258;51.148;14.068;2023-02-19T05:32:17;97904.38;;;5.68;100.00
52319;BME280;38258;51.148;14.068;2023-02-19T05:34:45;97885.47;;;5.61;100.00
52319;BME280;38258;51.148;14.068;2023-02-19T05:37:11;97889.69;;;5.67;100.00
52319;BME280;38258;51.148;14.068;2023-02-19T05:39:38;97895.78;;;5.64;100.00
52319;BME280;38258;51.148;14.068;2023-02-19T05:42:04;97904.44;;;5.65;100.00
52319;BME280;38258;51.148;14.068;2023-02-19T05:44:32;97891.47;;;5.63;100.00
52319;BME280;38258;51.148;14.068;2023-02-19T05:46:58;97899.25;;;5.63;100.00
52319;BME280;38258;51.148;14.068;2023-02-19T05:49:25;97898.38;;;5.64;100.00
52319;BME280;38258;51.148;14.068;2023-02-19T05:51:52;97896.78;;;5.57;100.00
52319;BME280;38258;51.148;14.068;2023-02-19T05:54:18;97888.25;;;5.49;100.00
52319;BME280;38258;51.148;14.068;2023-02-19T05:56:44;97901.97;;;5.57;100.00
52319;BME280;38258;51.148;14.068;2023-02-19T05:59:15;97894.06;;;5.65;100.00
52319;BME280;38258;51.148;14.068;2023-02-19T06:01:43;97901.91;;;5.60;100.00
52319;BME280;38258;51.148;14.068;2023-02-19T06:04:11;97902.03;;;5.54;100.00
52319;BME280;38258;51.148;14.068;2023-02-19T06:06:38;97902.81;;;5.59;100.00
52319;BME280;38258;51.148;14.068;2023-02-19T06:09:06;97897.69;;;5.55;100.00
52319;BME280;38258;51.148;14.068;2023-02-19T06:11:34;97906.16;;;5.66;100.00
52319;BME280;38258;51.148;14.068;2023-02-19T06:14:00;97905.28;;;5.65;100.00
52319;BME280;38258;51.148;14.068;2023-02-19T06:16:29;97903.69;;;5.57;100.00
52319;BME280;38258;51.148;14.068;2023-02-19T06:19:00;97908.94;;;5.52;100.00
52319;BME280;38258;51.148;14.068;2023-02-19T06:21:27;97918.38;;;5.59;100.00
52319;BME280;38258;51.148;14.068;2023-02-19T06:23:53;97924.38;;;5.61;100.00
52319;BME280;38258;51.148;14.068;2023-02-19T06:26:22;97883.25;;;5.38;100.00
52319;BME280;38258;51.148;14.068;2023-02-19T06:28:50;97913.25;;;5.55;100.00
52319;BME280;38258;51.148;14.068;2023-02-19T06:31:18;97934.88;;;5.52;100.00
52319;BME280;38258;51.148;14.068;2023-02-19T06:33:45;97926.16;;;5.59;100.00
52319;BME280;38258;51.148;14.068;2023-02-19T06:36:15;97928.00;;;5.51;100.00
52319;BME280;38258;51.148;14.068;2023-02-19T06:38:42;97938.22;;;5.62;100.00
52319;BME280;38258;51.148;14.068;2023-02-19T06:41:09;97933.94;;;5.58;100.00
52319;BME280;38258;51.148;14.068;2023-02-19T06:43:36;97933.06;;;5.59;100.00
52319;BME280;38258;51.148;14.068;2023-02-19T06:46:05;97937.41;;;5.60;100.00
52319;BME280;38258;51.148;14.068;2023-02-19T06:48:32;97952.09;;;5.58;100.00
52319;BME280;38258;51.148;14.068;2023-02-19T06:50:58;97942.59;;;5.60;100.00
52319;BME280;38258;51.148;14.068;2023-02-19T06:53:26;97953.69;;;5.66;100.00
52319;BME280;38258;51.148;14.068;2023-02-19T06:55:57;97951.97;;;5.65;100.00
52319;BME280;38258;51.148;14.068;2023-02-19T06:58:23;97959.88;;;5.61;100.00
52319;BME280;38258;51.148;14.068;2023-02-19T07:00:50;97962.47;;;5.59;100.00
52319;BME280;38258;51.148;14.068;2023-02-19T07:03:16;97970.19;;;5.64;100.00
52319;BME280;38258;51.148;14.068;2023-02-19T07:05:43;97969.38;;;5.62;100.00
52319;BME280;38258;51.148;14.068;2023-02-19T07:08:09;97969.38;;;5.62;100.00
52319;BME280;38258;51.148;14.068;2023-02-19T07:10:37;98014.34;;;4.93;100.00
52319;BME280;38258;51.148;14.068;2023-02-19T07:13:04;98016.00;;;4.13;100.00
52319;BME280;38258;51.148;14.068;2023-02-19T07:15:30;98041.25;;;3.80;100.00
52319;BME280;38258;51.148;14.068;2023-02-19T07:17:57;98054.31;;;3.60;100.00
52319;BME280;38258;51.148;14.068;2023-02-19T07:20:24;98065.56;;;3.54;100.00
52319;BME280;38258;51.148;14.068;2023-02-19T07:22:50;98062.13;;;3.47;100.00
52319;BME280;38258;51.148;14.068;2023-02-19T07:25:17;98073.44;;;3.31;100.00
52319;BME280;38258;51.148;14.068;2023-02-19T07:27:45;98065.69;;;3.20;100.00
52319;BME280;38258;51.148;14.068;2023-02-19T07:30:12;98030.47;;;2.94;100.00
52319;BME280;38258;51.148;14.068;2023-02-19T07:33:24;97899.06;;;2.05;100.00
52319;BME280;38258;51.148;14.068;2023-02-19T07:55:57;98046.94;;;2.21;100.00
52319;BME280;38258;51.148;14.068;2023-02-19T08:09:58;98147.63;;;2.45;100.00
52319;BME280;38258;51.148;14.068;2023-02-19T08:14:48;98009.06;;;1.50;100.00
52319;BME280;38258;51.148;14.068;2023-02-19T08:17:13;98110.59;;;2.08;100.00
52319;BME280;38258;51.148;14.068;2023-02-19T08:21:30;98169.13;;;2.34;100.00
52319;BME280;38258;51.148;14.068;2023-02-19T08:45:45;98216.25;;;1.79;100.00
52319;BME280;38258;51.148;14.068;2023-02-19T08:50:28;98115.28;;;0.82;100.00
52319;BME280;38258;51.148;14.068;2023-02-19T08:51:37;98265.22;;;1.65;100.00
52319;BME280;38258;51.148;14.068;2023-02-19T08:54:38;98222.88;;;1.25;100.00
52319;BME280;38258;51.148;14.068;2023-02-19T09:04:49;98178.38;;;0.32;100.00
52319;BME280;38258;51.148;14.068;2023-02-19T09:09:06;98224.06;;;0.56;100.00
52319;BME280;38258;51.148;14.068;2023-02-19T09:14:31;98228.88;;;0.24;100.00
52319;BME280;38258;51.148;14.068;2023-02-19T09:17:27;98230.41;;;0.03;100.00
52319;BME280;38258;51.148;14.068;2023-02-19T09:20:23;98284.66;;;0.28;100.00
52319;BME280;38258;51.148;14.068;2023-02-19T09:23:18;98318.09;;;0.23;100.00
52319;BME280;38258;51.148;14.068;2023-02-19T09:26:56;98293.84;;;0.04;100.00
52319;BME280;38258;51.148;14.068;2023-02-19T09:29:46;98227.47;;;-0.28;100.00
52319;BME280;38258;51.148;14.068;2023-02-19T09:32:29;98364.94;;;0.70;100.00
52319;BME280;38258;51.148;14.068;2023-02-19T09:51:15;98410.16;;;1.31;100.00
52319;BME280;38258;51.148;14.068;2023-02-19T10:03:42;98368.31;;;1.60;100.00
52319;BME280;38258;51.148;14.068;2023-02-19T10:18:49;98374.84;;;1.19;100.00
52319;BME280;38258;51.148;14.068;2023-02-19T10:30:08;98309.44;;;1.03;100.00
52319;BME280;38258;51.148;14.068;2023-02-19T10:33:47;98370.72;;;1.38;100.00
52319;BME280;38258;51.148;14.068;2023-02-19T10:43:58;98311.25;;;1.13;100.00
52319;BME280;38258;51.148;14.068;2023-02-19T10:46:58;98426.91;;;1.81;100.00
52319;BME280;38258;51.148;14.068;2023-02-19T10:49:41;98491.81;;;2.39;100.00
52319;BME280;38258;51.148;14.068;2023-02-19T10:52:38;98470.88;;;1.95;100.00
52319;BME280;38258;51.148;14.068;2023-02-19T10:55:29;98406.19;;;1.69;100.00
52319;BME280;38258;51.148;14.068;2023-02-19T10:58:25;98433.53;;;1.50;100.00
52319;BME280;38258;51.148;14.068;2023-02-19T11:01:16;98411.91;;;1.32;100.00
52319;BME280;38258;51.148;14.068;2023-02-19T11:04:25;98409.66;;;1.73;100.00
52319;BME280;38258;51.148;14.068;2023-02-19T11:07:10;98434.16;;;1.22;100.00
52319;BME280;38258;51.148;14.068;2023-02-19T11:10:03;98538.13;;;2.16;100.00
52319;BME280;38258;51.148;14.068;2023-02-19T11:12:55;98433.50;;;1.45;100.00
52319;BME280;38258;51.148;14.068;2023-02-19T11:15:52;98443.72;;;1.36;100.00
52319;BME280;38258;51.148;14.068;2023-02-19T11:18:36;98524.38;;;2.21;100.00
52319;BME280;38258;51.148;14.068;2023-02-19T11:21:35;98425.78;;;1.50;100.00
52319;BME280;38258;51.148;14.068;2023-02-19T11:24:49;98435.47;;;1.76;100.00
52319;BME280;38258;51.148;14.068;2023-02-19T11:28:02;98355.31;;;1.48;100.00
52319;BME280;38258;51.148;14.068;2023-02-19T11:31:43;98384.03;;;1.99;100.00
52319;BME280;38258;51.148;14.068;2023-02-19T11:34:37;98394.19;;;1.73;100.00
52319;BME280;38258;51.148;14.068;2023-02-19T11:39:06;98450.50;;;2.37;100.00
52319;BME280;38258;51.148;14.068;2023-02-19T11:40:56;98528.88;;;2.50;100.00
52319;BME280;38258;51.148;14.068;2023-02-19T11:44:13;98470.91;;;2.02;100.00
52319;BME280;38258;51.148;14.068;2023-02-19T11:47:14;98556.63;;;2.81;100.00
52319;BME280;38258;51.148;14.068;2023-02-19T11:50:15;98487.34;;;2.10;100.00
52319;BME280;38258;51.148;14.068;2023-02-19T11:52:59;98404.59;;;1.85;100.00
52319;BME280;38258;51.148;14.068;2023-02-19T11:55:42;98479.94;;;2.69;100.00
52319;BME280;38258;51.148;14.068;2023-02-19T11:58:31;98560.78;;;2.56;100.00
52319;BME280;38258;51.148;14.068;2023-02-19T12:01:18;98447.06;;;2.37;100.00
52319;BME280;38258;51.148;14.068;2023-02-19T12:06:55;98617.88;;;3.01;100.00
52319;BME280;38258;51.148;14.068;2023-02-19T12:09:44;98435.41;;;1.66;100.00
52319;BME280;38258;51.148;14.068;2023-02-19T12:12:25;98404.47;;;1.69;100.00
52319;BME280;38258;51.148;14.068;2023-02-19T12:15:15;98622.25;;;3.08;100.00
52319;BME280;38258;51.148;14.068;2023-02-19T12:20:58;98443.97;;;1.64;100.00
52319;BME280;38258;51.148;14.068;2023-02-19T12:23:44;98437.16;;;1.71;100.00
52319;BME280;38258;51.148;14.068;2023-02-19T12:26:21;98601.34;;;2.69;100.00
52319;BME280;38258;51.148;14.068;2023-02-19T12:29:11;98427.94;;;2.02;100.00
52319;BME280;38258;51.148;14.068;2023-02-19T12:31:54;98480.25;;;1.87;100.00
52319;BME280;38258;51.148;14.068;2023-02-19T12:34:45;98578.06;;;2.66;100.00
52319;BME280;38258;51.148;14.068;2023-02-19T12:37:22;98485.69;;;2.20;100.00
52319;BME280;38258;51.148;14.068;2023-02-19T12:40:07;98419.13;;;1.74;100.00
52319;BME280;38258;51.148;14.068;2023-02-19T12:42:51;98435.31;;;1.57;100.00
52319;BME280;38258;51.148;14.068;2023-02-19T12:45:28;98520.19;;;2.36;100.00
52319;BME280;38258;51.148;14.068;2023-02-19T12:48:05;98642.03;;;3.03;100.00
52319;BME280;38258;51.148;14.068;2023-02-19T12:50:45;98446.06;;;2.16;100.00
52319;BME280;38258;51.148;14.068;2023-02-19T12:53:23;98402.38;;;2.52;100.00
52319;BME280;38258;51.148;14.068;2023-02-19T12:55:55;98466.13;;;2.59;100.00
52319;BME280;38258;51.148;14.068;2023-02-19T12:58:27;98498.97;;;2.91;100.00
52319;BME280;38258;51.148;14.068;2023-02-19T13:00:58;98487.13;;;3.62;100.00
52319;BME280;38258;51.148;14.068;2023-02-19T13:03:29;98559.38;;;3.14;100.00
52319;BME280;38258;51.148;14.068;2023-02-19T13:06:02;98491.84;;;2.42;100.00
52319;BME280;38258;51.148;14.068;2023-02-19T13:08:38;98536.06;;;3.03;100.00
52319;BME280;38258;51.148;14.068;2023-02-19T13:11:14;98533.19;;;2.48;100.00
52319;BME280;38258;51.148;14.068;2023-02-19T13:13:47;98513.06;;;2.01;100.00
52319;BME280;38258;51.148;14.068;2023-02-19T13:16:18;98419.78;;;1.49;100.00
52319;BME280;38258;51.148;14.068;2023-02-19T13:18:52;98544.50;;;2.66;100.00
52319;BME280;38258;51.148;14.068;2023-02-19T13:21:21;98522.03;;;2.56;100.00
52319;BME280;38258;51.148;14.068;2023-02-19T13:24:11;98569.97;;;4.01;100.00
52319;BME280;38258;51.148;14.068;2023-02-19T13:26:57;98506.03;;;3.37;100.00
52319;BME280;38258;51.148;14.068;2023-02-19T13:32:30;98569.97;;;4.10;100.00
52319;BME280;38258;51.148;14.068;2023-02-19T13:35:20;98593.97;;;3.41;100.00
52319;BME280;38258;51.148;14.068;2023-02-19T13:37:47;98518.75;;;2.81;100.00
52319;BME280;38258;51.148;14.068;2023-02-19T13:40:25;98499.41;;;2.14;100.00
52319;BME280;38258;51.148;14.068;2023-02-19T13:42:55;98600.84;;;3.38;100.00
52319;BME280;38258;51.148;14.068;2023-02-19T13:45:27;98537.91;;;3.38;100.00
52319;BME280;38258;51.148;14.068;2023-02-19T13:48:11;98648.41;;;3.86;100.00
52319;BME280;38258;51.148;14.068;2023-02-19T13:50:38;98593.03;;;3.26;100.00
52319;BME280;38258;51.148;14.068;2023-02-19T13:53:54;98598.25;;;3.34;100.00
52319;BME280;38258;51.148;14.068;2023-02-19T13:56:37;98601.53;;;3.02;100.00
52319;BME280;38258;51.148;14.068;2023-02-19T13:59:20;98562.47;;;2.52;100.00
52319;BME280;38258;51.148;14.068;2023-02-19T14:02:20;98678.09;;;2.92;100.00
52319;BME280;38258;51.148;14.068;2023-02-19T14:04:53;98638.97;;;2.40;100.00
52319;BME280;38258;51.148;14.068;2023-02-19T14:10:58;98555.03;;;1.81;100.00
52319;BME280;38258;51.148;14.068;2023-02-19T14:14:00;98602.59;;;2.12;100.00
52319;BME280;38258;51.148;14.068;2023-02-19T14:16:54;98548.03;;;1.71;100.00
52319;BME280;38258;51.148;14.068;2023-02-19T14:19:43;98626.13;;;2.48;100.00
52319;BME280;38258;51.148;14.068;2023-02-19T14:28:18;98638.09;;;2.37;100.00
52319;BME280;38258;51.148;14.068;2023-02-19T14:30:48;98586.16;;;2.00;100.00
52319;BME280;38258;51.148;14.068;2023-02-19T14:33:18;98707.28;;;2.77;100.00
52319;BME280;38258;51.148;14.068;2023-02-19T14:35:49;98618.16;;;2.20;100.00
52319;BME280;38258;51.148;14.068;2023-02-19T14:38:21;98652.81;;;2.50;100.00
52319;BME280;38258;51.148;14.068;2023-02-19T14:40:50;98576.47;;;2.87;100.00
52319;BME280;38258;51.148;14.068;2023-02-19T14:43:22;98633.75;;;3.85;100.00
52319;BME280;38258;51.148;14.068;2023-02-19T14:45:52;98716.75;;;4.64;100.00
52319;BME280;38258;51.148;14.068;2023-02-19T14:48:22;98706.38;;;4.31;100.00
52319;BME280;38258;51.148;14.068;2023-02-19T14:50:54;98540.50;;;3.44;100.00
52319;BME280;38258;51.148;14.068;2023-02-19T14:53:23;98617.16;;;3.23;100.00
52319;BME280;38258;51.148;14.068;2023-02-19T14:55:53;98719.97;;;3.70;100.00
52319;BME280;38258;51.148;14.068;2023-02-19T14:58:26;98717.38;;;3.70;100.00
52319;BME280;38258;51.148;14.068;2023-02-19T15:00:53;98588.34;;;2.57;100.00
52319;BME280;38258;51.148;14.068;2023-02-19T15:03:28;98660.78;;;2.74;100.00
52319;BME280;38258;51.148;14.068;2023-02-19T15:05:58;98662.94;;;3.48;100.00
52319;BME280;38258;51.148;14.068;2023-02-19T15:08:30;98730.09;;;3.32;100.00
52319;BME280;38258;51.148;14.068;2023-02-19T15:10:58;98648.94;;;3.07;100.00
52319;BME280;38258;51.148;14.068;2023-02-19T15:13:27;98740.31;;;3.17;100.00
52319;BME280;38258;51.148;14.068;2023-02-19T15:15:55;98569.84;;;2.05;100.00
52319;BME280;38258;51.148;14.068;2023-02-19T15:18:24;98586.19;;;2.04;100.00
52319;BME280;38258;51.148;14.068;2023-02-19T15:20:58;98656.13;;;2.34;100.00
52319;BME280;38258;51.148;14.068;2023-02-19T15:23:26;98637.16;;;2.29;100.00
52319;BME280;38258;51.148;14.068;2023-02-19T15:25:56;98611.22;;;2.15;100.00
52319;BME280;38258;51.148;14.068;2023-02-19T15:28:31;98706.59;;;3.00;100.00
52319;BME280;38258;51.148;14.068;2023-02-19T15:31:13;98697.81;;;2.77;100.00
52319;BME280;38258;51.148;14.068;2023-02-19T15:33:48;98676.84;;;2.40;100.00
52319;BME280;38258;51.148;14.068;2023-02-19T15:36:21;98732.34;;;2.89;100.00
52319;BME280;38258;51.148;14.068;2023-02-19T15:38:54;98767.91;;;3.18;100.00
52319;BME280;38258;51.148;14.068;2023-02-19T15:41:22;98586.25;;;2.12;100.00
52319;BME280;38258;51.148;14.068;2023-02-19T15:43:55;98733.25;;;2.94;100.00
52319;BME280;38258;51.148;14.068;2023-02-19T15:46:23;98669.22;;;2.57;100.00
52319;BME280;38258;51.148;14.068;2023-02-19T15:48:57;98769.50;;;3.03;100.00
52319;BME280;38258;51.148;14.068;2023-02-19T15:51:28;98770.94;;;2.72;100.00
52319;BME280;38258;51.148;14.068;2023-02-19T15:53:59;98660.06;;;1.94;100.00
52319;BME280;38258;51.148;14.068;2023-02-19T15:56:30;98711.03;;;2.16;100.00
52319;BME280;38258;51.148;14.068;2023-02-19T15:59:01;98790.66;;;2.60;100.00